Time;durP1;ratioP1;P1;durP2;ratioP2;P2;SDS_P1;SDS_P2;PMS_P1;PMS_P2;Temp;Humidity;BMP_temperature;BMP_pressure;BME280_temperature;BME280_humidity;BME280_pressure;Samples;Min_cycle;Max_cycle;Signal;HPM_P1;HPM_P2
2021/09/18 00:00:53;;;;;;;16.65;2.50;;;;;;;;;;5045898;28;20033;-78
2021/09/18 00:03:18;;;;;;;10.82;3.15;;;;;;;;;;5047123;28;20447;-78
2021/09/18 00:05:44;;;;;;;14.75;1.60;;;;;;;;;;5047553;28;20029;-78
2021/09/18 00:08:09;;;;;;;10.57;1.73;;;;;;;;;;5045129;28;20033;-79
2021/09/18 00:10:35;;;;;;;10.70;2.05;;;;;;;;;;5028380;28;20397;-78
2021/09/18 00:13:00;;;;;;;9.77;1.75;;;;;;;;;;5043340;28;20096;-78
2021/09/18 00:15:27;;;;;;;14.25;2.30;;;;;;;;;;5044976;28;20383;-78
2021/09/18 00:17:53;;;;;;;13.93;2.17;;;;;;;;;;5035988;28;20137;-78
2021/09/18 00:20:19;;;;;;;11.93;1.92;;;;;;;;;;5045853;28;20104;-78
2021/09/18 00:22:44;;;;;;;16.25;1.70;;;;;;;;;;5047424;28;20044;-78
2021/09/18 00:25:10;;;;;;;10.82;1.70;;;;;;;;;;5047961;28;20029;-78
2021/09/18 00:27:36;;;;;;;15.50;2.67;;;;;;;;;;5048049;28;20025;-78
2021/09/18 00:30:01;;;;;;;6.35;1.63;;;;;;;;;;5045778;28;20658;-79
2021/09/18 00:32:27;;;;;;;12.35;2.50;;;;;;;;;;5048991;28;20132;-78
2021/09/18 00:34:52;;;;;;;15.38;2.03;;;;;;;;;;5045084;28;20103;-78
2021/09/18 00:37:18;;;;;;;11.05;1.77;;;;;;;;;;5046915;28;20044;-78
2021/09/18 00:39:43;;;;;;;8.65;1.95;;;;;;;;;;5045885;28;20036;-78
2021/09/18 00:42:09;;;;;;;10.77;2.13;;;;;;;;;;5045044;28;20061;-78
2021/09/18 00:44:34;;;;;;;11.70;1.98;;;;;;;;;;5046658;28;20033;-78
2021/09/18 00:46:59;;;;;;;13.30;2.45;;;;;;;;;;5042347;28;20021;-78
2021/09/18 00:49:25;;;;;;;15.57;1.83;;;;;;;;;;5043290;28;20032;-78
2021/09/18 00:51:51;;;;;;;8.60;2.25;;;;;;;;;;5040394;28;20036;-78
2021/09/18 00:54:16;;;;;;;14.85;1.95;;;;;;;;;;5050537;28;20037;-78
2021/09/18 00:56:42;;;;;;;10.90;1.90;;;;;;;;;;5044537;28;20029;-78
2021/09/18 00:59:08;;;;;;;13.20;1.70;;;;;;;;;;5045244;28;20585;-78
2021/09/18 01:01:34;;;;;;;12.98;1.95;;;;;;;;;;5061930;28;20041;-78
2021/09/18 01:04:01;;;;;;;10.60;1.75;;;;;;;;;;5066107;28;20106;-78
2021/09/18 01:06:28;;;;;;;14.88;1.55;;;;;;;;;;5068764;28;20029;-78
2021/09/18 01:08:56;;;;;;;8.40;1.90;;;;;;;;;;5066570;28;20101;-78
2021/09/18 01:11:22;;;;;;;17.98;3.03;;;;;;;;;;5063517;28;20063;-78
2021/09/18 01:13:47;;;;;;;7.60;1.67;;;;;;;;;;5064066;28;20036;-78
2021/09/18 01:16:13;;;;;;;12.35;1.90;;;;;;;;;;5066716;28;20107;-78
2021/09/18 01:18:38;;;;;;;15.48;2.20;;;;;;;;;;5066112;28;20035;-78
2021/09/18 01:21:04;;;;;;;15.52;2.47;;;;;;;;;;5064612;28;20392;-78
2021/09/18 01:23:29;;;;;;;7.43;2.10;;;;;;;;;;5078810;28;20028;-78
2021/09/18 01:25:55;;;;;;;13.32;2.25;;;;;;;;;;5063998;28;20052;-77
2021/09/18 01:28:22;;;;;;;9.23;2.85;;;;;;;;;;5081021;28;20017;-78
2021/09/18 01:30:49;;;;;;;15.50;2.65;;;;;;;;;;5063201;28;20031;-78
2021/09/18 01:33:14;;;;;;;11.23;2.10;;;;;;;;;;5063024;28;20038;-78
2021/09/18 01:35:40;;;;;;;8.07;1.90;;;;;;;;;;5062467;28;20089;-78
2021/09/18 01:38:06;;;;;;;9.98;1.63;;;;;;;;;;5062696;28;20126;-78
2021/09/18 01:40:40;;;;;;;22.25;2.40;;;;;;;;;;5059565;28;20111;-78
2021/09/18 01:43:06;;;;;;;5.68;1.60;;;;;;;;;;5077877;28;20619;-78
2021/09/18 01:45:33;;;;;;;12.63;3.17;;;;;;;;;;5076467;28;20070;-78
2021/09/18 01:48:01;;;;;;;18.17;2.25;;;;;;;;;;5062542;28;20659;-78
2021/09/18 01:50:45;;;;;;;14.77;3.03;;;;;;;;;;5066323;28;20504;-78
2021/09/18 01:53:11;;;;;;;13.80;2.53;;;;;;;;;;5062301;28;20102;-78
2021/09/18 01:55:37;;;;;;;14.35;3.10;;;;;;;;;;5063653;28;20033;-78
2021/09/18 01:58:05;;;;;;;14.43;2.80;;;;;;;;;;5062089;28;20052;-78
2021/09/18 02:00:31;;;;;;;14.52;3.13;;;;;;;;;;5079876;28;20024;-78
2021/09/18 02:02:56;;;;;;;13.88;4.00;;;;;;;;;;5043995;28;20504;-78
2021/09/18 02:05:25;;;;;;;16.60;3.00;;;;;;;;;;5065501;28;20120;-78
2021/09/18 02:07:51;;;;;;;14.80;2.35;;;;;;;;;;5062122;28;20027;-78
2021/09/18 02:10:19;;;;;;;15.40;2.40;;;;;;;;;;5077784;28;20143;-78
2021/09/18 02:12:46;;;;;;;11.43;2.33;;;;;;;;;;5062921;28;20028;-78
2021/09/18 02:15:13;;;;;;;12.00;2.20;;;;;;;;;;5065447;28;20529;-78
2021/09/18 02:17:39;;;;;;;14.02;3.03;;;;;;;;;;5061830;28;20052;-78
2021/09/18 02:20:07;;;;;;;10.50;2.13;;;;;;;;;;5059151;28;20049;-78
2021/09/18 02:22:34;;;;;;;18.27;3.75;;;;;;;;;;5063278;28;20123;-78
2021/09/18 02:25:00;;;;;;;23.38;2.95;;;;;;;;;;5061496;28;20098;-78
2021/09/18 02:27:25;;;;;;;18.38;2.85;;;;;;;;;;5076999;28;20026;-78
2021/09/18 02:29:51;;;;;;;11.85;2.25;;;;;;;;;;5063961;28;20109;-78
2021/09/18 02:32:16;;;;;;;11.88;2.97;;;;;;;;;;5064241;28;20111;-78
2021/09/18 02:34:42;;;;;;;13.15;2.92;;;;;;;;;;5066251;28;20035;-78
2021/09/18 02:37:07;;;;;;;18.70;4.63;;;;;;;;;;5065544;28;20036;-78
2021/09/18 02:39:33;;;;;;;17.15;4.38;;;;;;;;;;5067489;28;20493;-78
2021/09/18 02:41:58;;;;;;;19.88;4.90;;;;;;;;;;5067877;28;20077;-78
2021/09/18 02:44:24;;;;;;;16.05;3.97;;;;;;;;;;5067330;28;20029;-78
2021/09/18 02:46:49;;;;;;;25.48;5.78;;;;;;;;;;5070053;28;20044;-78
2021/09/18 02:49:15;;;;;;;25.80;5.95;;;;;;;;;;5063521;28;20479;-78
2021/09/18 02:51:41;;;;;;;27.55;6.18;;;;;;;;;;5079912;28;20032;-78
2021/09/18 02:54:06;;;;;;;17.75;4.68;;;;;;;;;;5085730;28;20123;-78
2021/09/18 02:56:31;;;;;;;34.90;6.03;;;;;;;;;;5069268;28;20075;-78
2021/09/18 02:58:57;;;;;;;19.58;5.15;;;;;;;;;;5066826;28;20081;-78
2021/09/18 03:01:23;;;;;;;29.42;5.15;;;;;;;;;;5084957;28;20063;-78
2021/09/18 03:03:48;;;;;;;15.88;4.75;;;;;;;;;;5078547;28;20417;-78
2021/09/18 03:06:14;;;;;;;21.08;4.40;;;;;;;;;;5067948;28;20043;-78
2021/09/18 03:08:39;;;;;;;25.20;4.50;;;;;;;;;;5063955;28;20028;-78
2021/09/18 03:11:05;;;;;;;14.60;3.72;;;;;;;;;;5068542;28;20028;-78
2021/09/18 03:13:30;;;;;;;10.02;3.42;;;;;;;;;;5064413;28;20033;-78
2021/09/18 03:15:56;;;;;;;10.68;3.50;;;;;;;;;;5063829;28;20036;-78
2021/09/18 03:18:22;;;;;;;11.30;3.75;;;;;;;;;;5068525;28;20060;-79
2021/09/18 03:20:47;;;;;;;14.55;3.47;;;;;;;;;;5065331;28;20090;-78
2021/09/18 03:23:13;;;;;;;17.17;3.83;;;;;;;;;;5067694;28;20612;-78
2021/09/18 03:25:42;;;;;;;14.95;3.72;;;;;;;;;;5064412;28;20076;-79
2021/09/18 03:28:08;;;;;;;16.63;4.53;;;;;;;;;;5066351;28;20074;-78
2021/09/18 03:30:34;;;;;;;11.73;4.15;;;;;;;;;;5065088;28;20052;-78
2021/09/18 03:32:59;;;;;;;14.57;3.85;;;;;;;;;;5068387;28;20579;-78
2021/09/18 03:35:25;;;;;;;16.27;4.40;;;;;;;;;;5050635;28;20040;-78
2021/09/18 03:37:50;;;;;;;12.57;4.80;;;;;;;;;;5065601;28;20472;-78
2021/09/18 03:40:16;;;;;;;12.00;4.63;;;;;;;;;;5067788;28;20574;-77
2021/09/18 03:42:41;;;;;;;12.30;4.75;;;;;;;;;;5050262;28;20040;-78
2021/09/18 03:45:08;;;;;;;13.82;4.38;;;;;;;;;;5050580;28;20043;-78
2021/09/18 03:47:33;;;;;;;8.77;5.00;;;;;;;;;;5064034;28;20021;-78
2021/09/18 03:49:59;;;;;;;14.75;5.32;;;;;;;;;;5067080;28;20520;-78
2021/09/18 03:52:26;;;;;;;13.05;5.70;;;;;;;;;;5063083;28;20036;-78
2021/09/18 03:54:55;;;;;;;14.20;5.32;;;;;;;;;;5067938;28;20055;-78
2021/09/18 03:57:21;;;;;;;14.68;5.40;;;;;;;;;;5079025;28;20025;-78
2021/09/18 03:59:47;;;;;;;20.00;6.07;;;;;;;;;;5065360;28;20035;-78
2021/09/18 04:02:12;;;;;;;16.23;5.82;;;;;;;;;;5064690;28;20092;-78
2021/09/18 04:04:37;;;;;;;21.98;7.68;;;;;;;;;;5062638;28;20036;-78
2021/09/18 04:07:04;;;;;;;9.90;5.30;;;;;;;;;;5064155;28;20037;-78
2021/09/18 04:09:29;;;;;;;14.93;5.50;;;;;;;;;;5081258;28;20052;-78
2021/09/18 04:11:55;;;;;;;23.48;7.25;;;;;;;;;;5064678;28;20071;-78
2021/09/18 04:14:20;;;;;;;24.25;7.18;;;;;;;;;;5064712;28;20035;-78
2021/09/18 04:16:46;;;;;;;19.25;7.55;;;;;;;;;;5079108;28;20028;-79
2021/09/18 04:19:11;;;;;;;23.50;9.02;;;;;;;;;;5066899;28;20032;-78
2021/09/18 04:21:37;;;;;;;20.95;7.72;;;;;;;;;;5065346;28;20397;-78
2021/09/18 04:24:04;;;;;;;26.23;8.10;;;;;;;;;;5067127;28;20063;-79
2021/09/18 04:26:30;;;;;;;19.05;8.10;;;;;;;;;;5064630;28;20669;-78
2021/09/18 04:28:57;;;;;;;31.88;7.82;;;;;;;;;;5067092;28;20032;-78
2021/09/18 04:31:23;;;;;;;17.90;7.75;;;;;;;;;;5065608;28;20512;-78
2021/09/18 04:33:48;;;;;;;25.38;8.20;;;;;;;;;;5067750;28;20028;-78
2021/09/18 04:36:14;;;;;;;28.90;8.38;;;;;;;;;;5069519;28;20035;-78
2021/09/18 04:38:39;;;;;;;17.55;7.38;;;;;;;;;;5055226;28;20037;-78
2021/09/18 04:41:05;;;;;;;24.08;8.38;;;;;;;;;;5062815;28;20039;-78
2021/09/18 04:43:30;;;;;;;28.92;8.25;;;;;;;;;;5067381;28;20028;-78
2021/09/18 04:45:56;;;;;;;27.00;9.93;;;;;;;;;;5063190;28;20029;-78
2021/09/18 04:48:21;;;;;;;28.83;8.82;;;;;;;;;;5062687;28;20559;-78
2021/09/18 04:50:47;;;;;;;21.33;8.57;;;;;;;;;;5063019;28;20078;-78
2021/09/18 04:53:13;;;;;;;26.42;8.68;;;;;;;;;;5069276;28;20438;-78
2021/09/18 04:55:39;;;;;;;19.67;7.63;;;;;;;;;;5064024;28;20035;-78
2021/09/18 04:58:04;;;;;;;21.48;8.57;;;;;;;;;;5051605;28;20032;-78
2021/09/18 05:00:30;;;;;;;19.25;8.13;;;;;;;;;;5080556;28;20032;-78
2021/09/18 05:02:55;;;;;;;21.75;7.38;;;;;;;;;;5063887;28;20490;-78
2021/09/18 05:05:21;;;;;;;22.48;7.80;;;;;;;;;;5066548;28;20024;-78
2021/09/18 05:07:47;;;;;;;23.77;7.65;;;;;;;;;;5065202;28;20020;-78
2021/09/18 05:10:12;;;;;;;22.05;7.68;;;;;;;;;;5064094;28;20041;-78
2021/09/18 05:12:38;;;;;;;25.30;7.47;;;;;;;;;;5064525;28;20048;-78
2021/09/18 05:15:06;;;;;;;24.08;7.50;;;;;;;;;;5081131;28;20123;-78
2021/09/18 05:17:32;;;;;;;22.85;8.50;;;;;;;;;;5058861;28;20040;-78
2021/09/18 05:19:57;;;;;;;28.88;8.45;;;;;;;;;;5063797;28;20043;-78
2021/09/18 05:22:23;;;;;;;25.80;8.50;;;;;;;;;;5081692;28;20051;-78
2021/09/18 05:24:48;;;;;;;19.83;8.52;;;;;;;;;;5065676;28;20028;-78
2021/09/18 05:27:14;;;;;;;24.55;9.70;;;;;;;;;;5063503;28;20052;-79
2021/09/18 05:29:43;;;;;;;17.42;7.78;;;;;;;;;;5065839;28;20036;-79
2021/09/18 05:32:09;;;;;;;17.63;8.13;;;;;;;;;;5064109;28;20035;-78
2021/09/18 05:34:34;;;;;;;21.55;7.90;;;;;;;;;;5080706;28;20036;-78
2021/09/18 05:37:00;;;;;;;21.60;7.80;;;;;;;;;;5063361;28;20379;-78
2021/09/18 05:39:25;;;;;;;25.25;8.43;;;;;;;;;;5065034;28;20040;-78
2021/09/18 05:41:51;;;;;;;23.88;7.57;;;;;;;;;;5048744;28;20047;-78
2021/09/18 05:44:16;;;;;;;24.92;7.63;;;;;;;;;;5065070;28;20047;-78
2021/09/18 05:46:42;;;;;;;18.45;7.53;;;;;;;;;;5063328;28;20032;-78
2021/09/18 05:49:07;;;;;;;14.35;6.78;;;;;;;;;;5064604;28;20115;-79
2021/09/18 05:51:33;;;;;;;22.85;8.10;;;;;;;;;;5063937;28;20509;-79
2021/09/18 05:53:58;;;;;;;16.33;7.25;;;;;;;;;;5065656;28;20038;-79
2021/09/18 05:56:24;;;;;;;24.65;8.00;;;;;;;;;;5032627;28;20033;-79
2021/09/18 05:58:49;;;;;;;17.38;7.00;;;;;;;;;;5065324;28;20542;-79
2021/09/18 06:01:15;;;;;;;26.02;7.65;;;;;;;;;;5047456;28;20548;-78
2021/09/18 06:03:40;;;;;;;46.20;8.38;;;;;;;;;;5061371;28;20094;-78
2021/09/18 06:06:06;;;;;;;22.40;8.15;;;;;;;;;;5078342;28;20494;-79
2021/09/18 06:08:31;;;;;;;23.80;7.47;;;;;;;;;;5058828;28;20638;-79
2021/09/18 06:10:57;;;;;;;62.90;8.60;;;;;;;;;;5064340;28;20025;-78
2021/09/18 06:13:22;;;;;;;61.63;8.95;;;;;;;;;;5062384;28;20039;-78
2021/09/18 06:15:48;;;;;;;80.97;8.77;;;;;;;;;;5065421;28;20124;-79
2021/09/18 06:18:13;;;;;;;44.90;9.07;;;;;;;;;;5041452;28;20037;-79
2021/09/18 06:20:38;;;;;;;28.55;8.60;;;;;;;;;;5060147;28;20115;-78
2021/09/18 06:23:04;;;;;;;54.55;8.45;;;;;;;;;;5061802;28;20081;-78
2021/09/18 06:25:30;;;;;;;52.35;8.48;;;;;;;;;;5076265;28;20090;-79
2021/09/18 06:27:55;;;;;;;49.88;8.30;;;;;;;;;;5081196;28;20557;-78
2021/09/18 06:30:21;;;;;;;44.65;9.00;;;;;;;;;;5045849;28;20664;-79
2021/09/18 06:32:46;;;;;;;60.22;9.27;;;;;;;;;;5060790;28;20025;-78
2021/09/18 06:35:12;;;;;;;24.95;7.57;;;;;;;;;;5063447;28;20812;-78
2021/09/18 06:37:46;;;;;;;55.53;8.95;;;;;;;;;;5080234;28;20036;-78
2021/09/18 06:40:13;;;;;;;65.47;8.90;;;;;;;;;;5064871;28;20025;-79
2021/09/18 06:42:39;;;;;;;62.67;9.65;;;;;;;;;;5063859;28;20418;-79
2021/09/18 06:45:06;;;;;;;65.80;9.15;;;;;;;;;;5063729;28;20043;-78
2021/09/18 06:47:32;;;;;;;44.92;8.32;;;;;;;;;;5064208;28;20546;-78
2021/09/18 06:49:57;;;;;;;55.20;8.00;;;;;;;;;;5065576;28;20025;-78
2021/09/18 06:52:23;;;;;;;35.10;7.68;;;;;;;;;;5080065;28;20040;-78
2021/09/18 06:54:48;;;;;;;90.38;7.97;;;;;;;;;;5062276;28;20529;-78
2021/09/18 06:57:14;;;;;;;70.85;7.68;;;;;;;;;;5070580;28;20038;-78
2021/09/18 06:59:39;;;;;;;29.40;7.32;;;;;;;;;;5064080;28;20118;-78
2021/09/18 07:02:06;;;;;;;19.95;6.97;;;;;;;;;;5061600;28;20436;-78
2021/09/18 07:04:31;;;;;;;46.22;7.30;;;;;;;;;;5061766;28;20517;-79
2021/09/18 07:06:57;;;;;;;16.95;7.20;;;;;;;;;;5063937;28;20032;-78
2021/09/18 07:09:22;;;;;;;19.40;6.00;;;;;;;;;;5056155;28;20116;-78
2021/09/18 07:11:48;;;;;;;14.98;6.82;;;;;;;;;;5073131;28;20079;-78
2021/09/18 07:14:13;;;;;;;18.77;6.97;;;;;;;;;;5058352;28;20367;-78
2021/09/18 07:16:39;;;;;;;12.70;5.82;;;;;;;;;;5057916;28;20035;-78
2021/09/18 07:19:04;;;;;;;24.25;6.00;;;;;;;;;;5060538;28;20118;-78
2021/09/18 07:21:30;;;;;;;17.48;6.75;;;;;;;;;;5066438;28;20460;-78
2021/09/18 07:23:55;;;;;;;11.10;5.28;;;;;;;;;;5064344;28;20029;-78
2021/09/18 07:26:21;;;;;;;14.07;6.38;;;;;;;;;;5064017;28;20053;-78
2021/09/18 07:28:46;;;;;;;17.60;6.32;;;;;;;;;;5068233;28;20031;-78
2021/09/18 07:31:12;;;;;;;19.15;6.13;;;;;;;;;;5065950;28;20405;-78
2021/09/18 07:33:37;;;;;;;17.27;7.10;;;;;;;;;;5068714;28;20105;-79
2021/09/18 07:36:04;;;;;;;35.45;9.02;;;;;;;;;;5065128;28;20090;-78
2021/09/18 07:38:29;;;;;;;16.58;6.03;;;;;;;;;;5064370;28;20046;-78
2021/09/18 07:40:56;;;;;;;10.73;5.85;;;;;;;;;;5069244;28;20024;-78
2021/09/18 07:43:22;;;;;;;12.27;5.38;;;;;;;;;;5080263;28;20115;-79
2021/09/18 07:45:48;;;;;;;15.85;5.97;;;;;;;;;;5068066;28;20028;-78
2021/09/18 07:48:13;;;;;;;14.23;6.35;;;;;;;;;;5064327;28;20117;-79
2021/09/18 07:50:39;;;;;;;13.23;5.95;;;;;;;;;;5068182;28;20059;-79
2021/09/18 07:53:06;;;;;;;16.40;6.45;;;;;;;;;;5083837;28;20028;-79
2021/09/18 07:55:32;;;;;;;16.35;5.38;;;;;;;;;;5062219;28;20679;-78
2021/09/18 07:57:57;;;;;;;15.48;5.95;;;;;;;;;;5062199;28;20124;-78
2021/09/18 08:00:23;;;;;;;12.60;5.40;;;;;;;;;;5080278;28;20154;-78
2021/09/18 08:02:51;;;;;;;22.13;6.03;;;;;;;;;;5062128;28;20039;-78
2021/09/18 08:05:17;;;;;;;14.55;5.90;;;;;;;;;;5063330;28;20020;-78
2021/09/18 08:07:42;;;;;;;16.60;5.97;;;;;;;;;;5066134;28;20086;-78
2021/09/18 08:10:13;;;;;;;18.95;5.90;;;;;;;;;;5079948;28;20032;-78
2021/09/18 08:12:39;;;;;;;12.65;5.88;;;;;;;;;;5060223;28;20043;-79
2021/09/18 08:15:06;;;;;;;16.95;6.60;;;;;;;;;;5058024;28;20035;-78
2021/09/18 08:17:31;;;;;;;14.07;5.93;;;;;;;;;;5065713;28;20178;-78
2021/09/18 08:19:57;;;;;;;13.65;6.50;;;;;;;;;;5065184;28;20112;-78
2021/09/18 08:22:22;;;;;;;12.57;5.68;;;;;;;;;;5080736;28;20520;-78
2021/09/18 08:24:48;;;;;;;18.73;6.30;;;;;;;;;;5061963;28;20029;-78
2021/09/18 08:27:13;;;;;;;14.18;6.68;;;;;;;;;;5058306;28;20044;-78
2021/09/18 08:29:39;;;;;;;19.08;6.10;;;;;;;;;;5066289;28;20056;-79
2021/09/18 08:32:04;;;;;;;11.00;5.32;;;;;;;;;;5061772;28;20201;-78
2021/09/18 08:34:30;;;;;;;18.30;5.68;;;;;;;;;;5065844;28;20032;-78
2021/09/18 08:36:55;;;;;;;10.30;5.70;;;;;;;;;;5063606;28;20024;-78
2021/09/18 08:39:21;;;;;;;15.90;6.70;;;;;;;;;;5060711;28;20047;-78
2021/09/18 08:41:48;;;;;;;15.30;6.30;;;;;;;;;;5062719;28;20497;-78
2021/09/18 08:44:16;;;;;;;14.50;6.20;;;;;;;;;;5058786;28;20044;-78
2021/09/18 08:46:42;;;;;;;16.02;6.65;;;;;;;;;;5067281;28;20028;-78
2021/09/18 08:49:10;;;;;;;16.95;5.97;;;;;;;;;;5061443;28;20037;-78
2021/09/18 08:51:36;;;;;;;22.92;6.25;;;;;;;;;;5068389;28;20032;-78
2021/09/18 08:54:04;;;;;;;13.68;6.00;;;;;;;;;;5078666;28;20033;-78
2021/09/18 08:56:31;;;;;;;19.17;6.75;;;;;;;;;;5064098;28;20549;-79
2021/09/18 08:58:57;;;;;;;12.55;5.35;;;;;;;;;;5063948;28;20043;-78
2021/09/18 09:02:06;;;;;;;11.23;5.45;;;;;;;;;;5054565;28;20035;-78
2021/09/18 09:04:32;;;;;;;13.70;6.28;;;;;;;;;;5065157;28;20051;-79
2021/09/18 09:07:01;;;;;;;15.85;5.95;;;;;;;;;;5062188;28;20553;-78
2021/09/18 09:09:26;;;;;;;15.70;6.22;;;;;;;;;;5064418;28;20781;-78
2021/09/18 09:11:53;;;;;;;16.48;6.45;;;;;;;;;;5067510;28;20032;-78
2021/09/18 09:14:19;;;;;;;18.02;6.78;;;;;;;;;;5084245;28;20024;-78
2021/09/18 09:17:05;;;;;;;18.40;6.85;;;;;;;;;;5064141;28;20139;-78
2021/09/18 09:19:38;;;;;;;17.35;7.55;;;;;;;;;;5077098;28;20029;-79
2021/09/18 09:22:04;;;;;;;18.05;7.15;;;;;;;;;;5048573;28;20489;-78
2021/09/18 09:24:30;;;;;;;22.67;6.72;;;;;;;;;;5044734;28;20034;-77
2021/09/18 09:27:08;;;;;;;15.85;6.40;;;;;;;;;;5062572;28;20121;-77
2021/09/18 09:29:43;;;;;;;25.02;6.53;;;;;;;;;;5076734;28;20042;-77
2021/09/18 09:32:32;;;;;;;18.20;5.40;;;;;;;;;;5078345;28;20056;-77
2021/09/18 09:35:00;;;;;;;11.00;4.70;;;;;;;;;;5056214;28;20020;-76
2021/09/18 09:37:26;;;;;;;12.82;4.47;;;;;;;;;;5061127;28;20059;-77
2021/09/18 09:40:01;;;;;;;17.27;5.82;;;;;;;;;;5061424;28;20111;-77
2021/09/18 09:42:48;;;;;;;10.15;4.65;;;;;;;;;;5056110;28;20024;-76
2021/09/18 09:45:19;;;;;;;13.60;4.72;;;;;;;;;;5077271;28;20075;-76
2021/09/18 09:47:47;;;;;;;15.15;4.90;;;;;;;;;;5065387;28;20028;-76
2021/09/18 09:50:13;;;;;;;11.27;3.70;;;;;;;;;;5079800;28;20055;-76
2021/09/18 09:52:45;;;;;;;15.30;4.78;;;;;;;;;;5080098;28;20036;-77
2021/09/18 09:55:13;;;;;;;16.17;4.55;;;;;;;;;;5066840;28;20032;-76
2021/09/18 09:57:40;;;;;;;11.40;3.83;;;;;;;;;;5066277;28;20024;-76
2021/09/18 10:00:16;;;;;;;11.10;4.18;;;;;;;;;;5063129;28;20036;-76
2021/09/18 10:02:43;;;;;;;12.50;4.75;;;;;;;;;;5060232;28;20029;-76
2021/09/18 10:05:15;;;;;;;12.00;4.47;;;;;;;;;;5064514;28;20068;-76
2021/09/18 10:07:42;;;;;;;10.77;4.10;;;;;;;;;;5065549;28;20109;-76
2021/09/18 10:10:09;;;;;;;8.65;3.67;;;;;;;;;;5076532;28;20047;-76
2021/09/18 10:12:36;;;;;;;15.48;4.38;;;;;;;;;;5079868;28;20443;-77
2021/09/18 10:15:05;;;;;;;8.55;3.60;;;;;;;;;;5082038;28;20036;-77
2021/09/18 10:17:38;;;;;;;11.57;4.20;;;;;;;;;;5065315;28;20050;-76
2021/09/18 10:25:38;;;;;;;12.77;4.70;;;;;;;;;;5065362;28;20047;-76
2021/09/18 10:28:09;;;;;;;8.32;4.93;;;;;;;;;;5062823;28;20029;-77
2021/09/18 10:30:41;;;;;;;8.57;3.97;;;;;;;;;;5059473;28;20086;-76
2021/09/18 10:33:32;;;;;;;9.35;4.13;;;;;;;;;;5065810;28;20024;-76
2021/09/18 10:36:02;;;;;;;8.23;4.10;;;;;;;;;;5058221;28;20032;-77
2021/09/18 10:38:30;;;;;;;10.95;4.63;;;;;;;;;;5065458;28;20028;-77
2021/09/18 10:41:10;;;;;;;10.77;3.55;;;;;;;;;;5063982;28;20028;-78
2021/09/18 10:43:39;;;;;;;7.88;3.50;;;;;;;;;;5059483;28;20020;-76
2021/09/18 10:46:09;;;;;;;11.57;3.70;;;;;;;;;;5076274;28;20028;-76
2021/09/18 10:48:47;;;;;;;8.52;3.03;;;;;;;;;;5058039;28;20020;-76
2021/09/18 10:51:31;;;;;;;7.97;3.67;;;;;;;;;;5068972;28;20040;-77
2021/09/18 10:54:09;;;;;;;5.07;2.50;;;;;;;;;;5064447;28;20012;-76
2021/09/18 10:56:57;;;;;;;9.43;2.72;;;;;;;;;;5062249;28;20116;-76
2021/09/18 10:59:43;;;;;;;8.95;3.60;;;;;;;;;;5067386;28;20028;-77
2021/09/18 11:02:30;;;;;;;8.85;3.72;;;;;;;;;;5060354;28;20528;-76
2021/09/18 11:05:07;;;;;;;10.02;2.90;;;;;;;;;;5071328;28;20025;-77
2021/09/18 11:07:53;;;;;;;8.70;2.72;;;;;;;;;;5060558;28;20056;-76
2021/09/18 11:10:21;;;;;;;9.82;2.95;;;;;;;;;;5067947;28;20024;-76
2021/09/18 11:13:05;;;;;;;9.45;2.90;;;;;;;;;;5066811;28;20059;-76
2021/09/18 11:15:40;;;;;;;10.07;2.53;;;;;;;;;;5063003;28;20084;-77
2021/09/18 11:18:10;;;;;;;9.13;2.55;;;;;;;;;;5068296;28;20025;-76
2021/09/18 11:20:36;;;;;;;5.97;2.95;;;;;;;;;;5065786;28;20028;-76
2021/09/18 11:23:03;;;;;;;8.52;3.08;;;;;;;;;;5075024;28;20062;-76
2021/09/18 11:25:32;;;;;;;12.05;2.83;;;;;;;;;;5064377;28;20497;-76
2021/09/18 11:28:09;;;;;;;6.88;2.17;;;;;;;;;;5066133;28;20059;-76
2021/09/18 11:30:42;;;;;;;14.32;2.67;;;;;;;;;;5064799;28;20043;-76
2021/09/18 11:33:08;;;;;;;9.90;2.50;;;;;;;;;;5062936;28;20050;-76
2021/09/18 11:35:35;;;;;;;9.18;2.78;;;;;;;;;;5067952;28;20055;-76
2021/09/18 11:38:04;;;;;;;10.50;2.35;;;;;;;;;;5078654;28;20024;-76
2021/09/18 11:40:31;;;;;;;11.40;2.42;;;;;;;;;;5065601;28;20661;-77
2021/09/18 11:42:58;;;;;;;13.10;1.90;;;;;;;;;;5062726;28;20556;-76
2021/09/18 11:45:25;;;;;;;6.55;2.25;;;;;;;;;;5066473;28;20565;-76
2021/09/18 11:47:53;;;;;;;9.43;2.17;;;;;;;;;;5064439;28;20092;-76
2021/09/18 11:50:36;;;;;;;10.68;2.25;;;;;;;;;;5071248;28;20059;-76
2021/09/18 11:53:10;;;;;;;10.30;2.70;;;;;;;;;;5062905;28;20024;-76
2021/09/18 11:55:41;;;;;;;9.73;2.30;;;;;;;;;;5066907;28;20025;-76
2021/09/18 11:58:28;;;;;;;6.05;2.10;;;;;;;;;;5065072;28;20630;-76
2021/09/18 12:00:58;;;;;;;11.13;1.85;;;;;;;;;;5078604;28;20031;-76
2021/09/18 12:03:24;;;;;;;10.23;2.38;;;;;;;;;;5064223;28;20017;-76
2021/09/18 12:05:51;;;;;;;8.45;2.05;;;;;;;;;;5062693;28;20021;-76
2021/09/18 12:08:21;;;;;;;10.20;2.25;;;;;;;;;;5083810;28;20068;-76
2021/09/18 12:10:47;;;;;;;13.35;3.15;;;;;;;;;;5064974;28;20021;-76
2021/09/18 12:13:17;;;;;;;10.93;2.00;;;;;;;;;;5060643;28;20040;-76
2021/09/18 12:15:43;;;;;;;11.98;1.83;;;;;;;;;;5058292;28;20083;-76
2021/09/18 12:18:39;;;;;;;8.85;1.45;;;;;;;;;;5066853;28;20033;-76
2021/09/18 12:21:10;;;;;;;11.48;1.90;;;;;;;;;;5063136;28;20032;-76
2021/09/18 12:23:47;;;;;;;10.98;1.65;;;;;;;;;;5077994;28;20139;-76
2021/09/18 12:26:13;;;;;;;12.00;1.30;;;;;;;;;;5063072;28;20048;-76
2021/09/18 12:28:40;;;;;;;10.88;1.75;;;;;;;;;;5048746;28;20021;-76
2021/09/18 12:31:23;;;;;;;9.80;2.13;;;;;;;;;;5056351;28;20037;-76
2021/09/18 12:33:50;;;;;;;13.98;1.98;;;;;;;;;;5060778;28;20104;-76
2021/09/18 12:36:23;;;;;;;11.15;1.60;;;;;;;;;;5078562;28;20028;-76
2021/09/18 12:38:48;;;;;;;8.27;1.60;;;;;;;;;;5062713;28;20026;-76
2021/09/18 12:41:23;;;;;;;9.50;1.88;;;;;;;;;;5065661;28;20079;-76
2021/09/18 12:43:56;;;;;;;11.65;1.85;;;;;;;;;;5063083;28;20024;-76
2021/09/18 12:46:24;;;;;;;11.02;3.33;;;;;;;;;;5067201;28;20024;-76
2021/09/18 12:49:02;;;;;;;18.15;1.88;;;;;;;;;;5064075;28;20036;-76
2021/09/18 12:51:29;;;;;;;11.20;1.80;;;;;;;;;;5062955;28;20551;-76
2021/09/18 12:53:56;;;;;;;14.18;1.58;;;;;;;;;;5058676;28;20035;-76
2021/09/18 12:56:28;;;;;;;6.80;1.55;;;;;;;;;;5063764;28;20032;-76
2021/09/18 12:58:58;;;;;;;14.60;1.58;;;;;;;;;;5061347;28;20123;-76
2021/09/18 13:01:39;;;;;;;7.43;2.05;;;;;;;;;;5074997;28;20115;-75
2021/09/18 13:04:18;;;;;;;12.55;1.52;;;;;;;;;;5062851;28;20501;-76
2021/09/18 13:07:00;;;;;;;19.42;2.30;;;;;;;;;;5081044;28;20036;-77
2021/09/18 13:09:30;;;;;;;9.38;1.90;;;;;;;;;;5062094;28;20115;-77
2021/09/18 13:11:59;;;;;;;8.60;1.70;;;;;;;;;;5070370;28;20132;-77
2021/09/18 13:14:34;;;;;;;15.20;1.77;;;;;;;;;;5065048;28;20030;-77
2021/09/18 13:17:08;;;;;;;10.30;1.67;;;;;;;;;;5066607;28;20031;-77
2021/09/18 13:19:53;;;;;;;11.77;2.17;;;;;;;;;;5062992;28;20024;-77
2021/09/18 13:22:30;;;;;;;5.70;1.13;;;;;;;;;;5065812;28;20023;-77
2021/09/18 13:24:57;;;;;;;8.15;1.35;;;;;;;;;;5082156;28;20028;-77
2021/09/18 13:27:25;;;;;;;10.82;1.80;;;;;;;;;;5060474;28;20079;-77
2021/09/18 13:29:52;;;;;;;10.35;1.70;;;;;;;;;;5063451;28;20512;-77
2021/09/18 13:32:19;;;;;;;15.38;1.90;;;;;;;;;;5063544;28;20024;-77
2021/09/18 13:34:44;;;;;;;9.45;1.65;;;;;;;;;;5059894;28;20055;-77
2021/09/18 13:37:10;;;;;;;16.58;2.55;;;;;;;;;;5070030;28;20036;-77
2021/09/18 13:39:36;;;;;;;10.73;1.45;;;;;;;;;;5062420;28;20037;-77
2021/09/18 13:42:02;;;;;;;11.45;1.90;;;;;;;;;;5064818;28;20041;-77
2021/09/18 13:44:29;;;;;;;8.57;2.13;;;;;;;;;;5065817;28;20485;-77
2021/09/18 13:46:55;;;;;;;9.32;2.03;;;;;;;;;;5056217;28;20029;-76
2021/09/18 13:49:21;;;;;;;13.40;2.00;;;;;;;;;;5060859;28;20676;-77
2021/09/18 13:51:46;;;;;;;11.52;1.73;;;;;;;;;;5064093;28;20038;-77
2021/09/18 13:54:12;;;;;;;8.35;1.73;;;;;;;;;;5065485;28;20114;-77
2021/09/18 13:56:38;;;;;;;13.07;2.05;;;;;;;;;;5065854;28;20457;-77
2021/09/18 13:59:03;;;;;;;12.07;1.85;;;;;;;;;;5063589;28;20124;-77
2021/09/18 14:01:29;;;;;;;14.07;1.83;;;;;;;;;;5078894;28;20063;-76
2021/09/18 14:03:59;;;;;;;10.30;1.55;;;;;;;;;;5058757;28;20051;-77
2021/09/18 14:06:25;;;;;;;5.68;1.17;;;;;;;;;;5063257;28;20552;-76
2021/09/18 14:08:51;;;;;;;12.55;1.67;;;;;;;;;;5064137;28;20037;-77
2021/09/18 14:11:17;;;;;;;12.55;3.90;;;;;;;;;;5061134;28;20036;-77
2021/09/18 14:13:43;;;;;;;7.68;1.60;;;;;;;;;;5080203;28;20516;-77
2021/09/18 14:16:09;;;;;;;13.35;1.75;;;;;;;;;;5057413;28;20032;-77
2021/09/18 14:18:34;;;;;;;4.32;1.73;;;;;;;;;;5058926;28;20029;-77
2021/09/18 14:21:00;;;;;;;10.30;2.65;;;;;;;;;;5060305;28;20537;-77
2021/09/18 14:23:26;;;;;;;11.20;2.42;;;;;;;;;;5064127;28;20540;-77
2021/09/18 14:25:52;;;;;;;18.10;2.58;;;;;;;;;;5065406;28;20052;-77
2021/09/18 14:28:18;;;;;;;17.17;3.45;;;;;;;;;;5079154;28;20032;-77
2021/09/18 14:30:44;;;;;;;10.00;1.95;;;;;;;;;;5071692;28;20036;-76
2021/09/18 14:33:09;;;;;;;13.48;2.13;;;;;;;;;;5075563;28;20025;-77
2021/09/18 14:35:35;;;;;;;16.23;2.63;;;;;;;;;;5070402;28;20517;-77
2021/09/18 14:38:01;;;;;;;11.15;2.33;;;;;;;;;;5069211;28;20485;-77
2021/09/18 14:40:27;;;;;;;17.15;3.03;;;;;;;;;;5063707;28;20104;-77